createdAt,value
2018-01-21T07:54:04.579Z,96777.37
2018-01-21T07:56:35.632Z,96778.02
2018-01-21T07:59:06.702Z,96785.73
2018-01-21T08:01:37.731Z,96791.20
2018-01-21T08:04:08.842Z,96804.89
2018-01-21T08:06:39.921Z,96794.49
2018-01-21T08:09:11.028Z,96810.77
2018-01-21T08:11:42.080Z,96810.11
2018-01-21T08:14:13.147Z,96819.27
2018-01-21T08:16:44.257Z,96817.93
2018-01-21T08:19:15.341Z,96820.41
2018-01-21T08:21:46.425Z,96830.35
2018-01-21T08:24:17.528Z,96824.38
2018-01-21T08:26:48.606Z,96832.50
2018-01-21T08:29:19.834Z,96838.73
2018-01-21T08:31:50.922Z,96842.02
2018-01-21T08:34:28.102Z,96850.17
2018-01-21T08:37:05.336Z,96860.39
2018-01-21T08:42:43.680Z,96879.19
2018-01-21T08:45:14.810Z,96890.09
2018-01-21T08:47:45.842Z,96902.41
2018-01-21T08:50:16.966Z,96905.31
2018-01-21T08:52:48.026Z,96909.56
2018-01-21T08:55:19.116Z,96908.94
2018-01-21T08:57:50.503Z,96914.83
2018-01-21T09:00:21.667Z,96911.81
2018-01-21T09:02:52.780Z,96927.59
2018-01-21T09:05:23.852Z,96931.17
2018-01-21T09:07:56.371Z,96942.25
2018-01-21T09:10:27.454Z,96943.97
2018-01-21T09:12:58.581Z,96947.41
2018-01-21T09:15:29.679Z,96943.83
2018-01-21T09:18:01.245Z,96946.30
2018-01-21T09:20:32.344Z,96977.55
2018-01-21T09:23:03.471Z,96979.99
2018-01-21T09:25:34.564Z,96983.14
2018-01-21T09:28:05.618Z,96984.08
2018-01-21T09:30:36.706Z,96989.81
2018-01-21T09:33:07.776Z,96990.83
2018-01-21T09:35:38.918Z,96988.28
2018-01-21T09:38:10.031Z,97007.24
2018-01-21T09:40:41.109Z,97009.05
2018-01-21T09:43:12.179Z,97028.89
2018-01-21T09:45:43.294Z,97022.67
2018-01-21T09:48:14.428Z,97037.78
2018-01-21T09:50:45.519Z,97037.97
2018-01-21T09:53:16.552Z,97048.06
2018-01-21T09:55:47.646Z,97061.55
2018-01-21T09:58:18.697Z,97060.68
2018-01-21T10:00:49.814Z,97059.67
2018-01-21T10:03:20.854Z,97061.66
2018-01-21T10:05:51.953Z,97061.38
2018-01-21T10:08:23.025Z,97068.34
2018-01-21T10:10:54.101Z,97063.05
2018-01-21T10:13:25.897Z,97067.44
2018-01-21T10:15:57.086Z,97076.82
2018-01-21T10:18:28.180Z,97072.03
2018-01-21T10:20:59.294Z,97082.02
2018-01-21T10:23:30.350Z,97098.01
2018-01-21T10:26:01.622Z,97098.85
2018-01-21T10:28:32.716Z,97109.15
2018-01-21T10:31:03.792Z,97113.11
2018-01-21T10:33:34.896Z,97123.72
2018-01-21T10:36:05.955Z,97133.90
2018-01-21T10:38:37.032Z,97128.40
2018-01-21T10:41:08.132Z,97131.34
2018-01-21T10:43:39.195Z,97146.95
2018-01-21T10:46:10.260Z,97149.28
2018-01-21T10:48:41.344Z,97159.22
2018-01-21T10:51:12.439Z,97156.30
2018-01-21T10:53:49.832Z,97170.17
2018-01-21T10:56:20.948Z,97169.78
2018-01-21T10:58:52.040Z,97172.13
2018-01-21T11:01:23.151Z,97187.87
2018-01-21T11:03:54.255Z,97188.10
2018-01-21T11:06:25.312Z,97195.42
2018-01-21T11:08:56.383Z,97205.88
2018-01-21T11:11:28.029Z,97210.02
2018-01-21T11:13:59.103Z,97213.73
2018-01-21T11:16:30.175Z,97217.54
2018-01-21T11:19:01.270Z,97225.61
2018-01-21T11:21:32.404Z,97235.33
2018-01-21T11:24:03.480Z,97244.09
2018-01-21T11:26:34.540Z,97256.19
2018-01-21T11:29:05.626Z,97254.93
2018-01-21T11:31:36.684Z,97271.67
2018-01-21T11:34:07.760Z,97264.01
2018-01-21T11:36:38.881Z,97273.53
2018-01-21T11:39:09.969Z,97275.95
2018-01-21T11:41:41.108Z,97284.53
2018-01-21T11:44:12.202Z,97281.92
2018-01-21T11:46:43.293Z,97283.60
2018-01-21T11:49:14.526Z,97278.39
2018-01-21T11:51:45.604Z,97290.92
2018-01-21T11:54:16.691Z,97292.12
2018-01-21T11:56:47.789Z,97287.26
2018-01-21T11:59:18.890Z,97295.63
2018-01-21T12:01:50.006Z,97308.21
2018-01-21T12:04:21.227Z,97315.69
2018-01-21T12:06:52.268Z,97316.95
2018-01-21T12:09:23.380Z,97323.58
2018-01-21T12:11:54.429Z,97326.42
2018-01-21T12:14:25.521Z,97332.58
2018-01-21T12:16:56.607Z,97342.25
2018-01-21T12:19:27.856Z,97339.10
2018-01-21T12:21:58.932Z,97354.11
2018-01-21T12:24:30.015Z,97358.59
2018-01-21T12:27:01.068Z,97363.51
2018-01-21T12:29:32.205Z,97368.56
2018-01-21T12:32:03.308Z,97373.47
2018-01-21T12:34:34.396Z,97380.25
2018-01-21T12:37:05.488Z,97380.59
2018-01-21T12:39:36.598Z,97381.56
2018-01-21T12:42:07.694Z,97388.63
2018-01-21T12:44:38.754Z,97392.84
2018-01-21T12:47:10.053Z,97389.81
2018-01-21T12:49:41.167Z,97395.37
2018-01-21T12:52:12.257Z,97397.59
2018-01-21T12:54:43.366Z,97397.81
2018-01-21T12:57:14.429Z,97407.59
2018-01-21T12:59:45.546Z,97408.66
2018-01-21T13:02:16.605Z,97408.87
2018-01-21T13:04:47.791Z,97412.91
2018-01-21T13:07:18.856Z,97413.66
2018-01-21T13:09:49.911Z,97418.94
2018-01-21T13:12:21.009Z,97422.05
2018-01-21T13:14:52.110Z,97421.55
2018-01-21T13:17:23.184Z,97431.20
2018-01-21T13:19:54.213Z,97437.88
2018-01-21T13:22:25.370Z,97444.90
2018-01-21T13:24:56.467Z,97445.44
2018-01-21T13:27:27.577Z,97455.16
2018-01-21T13:29:58.676Z,97460.56
2018-01-21T13:32:29.735Z,97460.88
2018-01-21T13:35:00.874Z,97471.86
2018-01-21T13:37:31.947Z,97476.48
2018-01-21T13:40:03.086Z,97481.24
2018-01-21T13:42:34.147Z,97492.21
2018-01-21T13:45:05.221Z,97493.41
2018-01-21T13:47:36.300Z,97500.81
2018-01-21T13:50:07.423Z,97507.20
2018-01-21T13:52:38.532Z,97510.50
2018-01-21T13:55:09.641Z,97512.52
2018-01-21T13:57:40.744Z,97520.30
2018-01-21T14:00:11.868Z,97528.08
2018-01-21T14:02:42.986Z,97534.01
2018-01-21T14:05:14.033Z,97532.66
2018-01-21T14:07:45.154Z,97537.43
2018-01-21T14:10:16.289Z,97543.85
2018-01-21T14:12:47.356Z,97550.76
2018-01-21T14:15:18.451Z,97552.77
2018-01-21T14:17:49.523Z,97562.84
2018-01-21T14:20:20.638Z,97557.75
2018-01-21T14:22:51.762Z,97556.75
2018-01-21T14:25:22.872Z,97558.09
2018-01-21T14:27:53.931Z,97564.61
2018-01-21T14:30:25.055Z,97571.17
2018-01-21T14:32:56.130Z,97574.16
2018-01-21T14:35:27.191Z,97577.80
2018-01-21T14:37:58.264Z,97585.20
2018-01-21T14:40:29.334Z,97593.91
2018-01-21T14:43:00.441Z,97597.98
2018-01-21T14:45:31.548Z,97605.64
2018-01-21T14:48:02.649Z,97613.88
2018-01-21T14:50:33.748Z,97613.77
2018-01-21T14:53:04.901Z,97616.22
2018-01-21T14:55:35.991Z,97625.55
2018-01-21T14:58:07.068Z,97625.25
2018-01-21T15:00:40.046Z,97626.36
2018-01-21T15:03:11.105Z,97620.43
2018-01-21T15:05:42.214Z,97629.63
2018-01-21T15:08:13.320Z,97627.48
2018-01-21T15:10:44.396Z,97635.73
2018-01-21T15:13:15.463Z,97636.13
2018-01-21T15:15:46.576Z,97636.29
2018-01-21T15:18:17.662Z,97646.00
2018-01-21T15:20:48.780Z,97648.94
2018-01-21T15:23:19.868Z,97650.84
2018-01-21T15:25:50.980Z,97659.48
2018-01-21T15:28:22.060Z,97658.45
2018-01-21T15:30:53.133Z,97661.23
2018-01-21T15:33:24.232Z,97660.36
2018-01-21T15:35:55.319Z,97664.50
2018-01-21T15:38:26.448Z,97664.13
2018-01-21T15:40:57.542Z,97681.39
2018-01-21T15:43:28.883Z,97686.31
2018-01-21T15:45:59.983Z,97691.13
2018-01-21T15:48:31.056Z,97694.23
2018-01-21T15:51:02.090Z,97696.75
2018-01-21T15:53:33.258Z,97702.77
2018-01-21T15:56:04.385Z,97698.85
2018-01-21T15:58:35.473Z,97699.78
2018-01-21T16:01:06.560Z,97695.29
2018-01-21T16:03:37.678Z,97699.30
2018-01-21T16:06:08.761Z,97700.98
2018-01-21T16:08:39.895Z,97712.73
2018-01-21T16:11:10.985Z,97709.02
2018-01-21T16:13:42.080Z,97718.25
2018-01-21T16:16:13.199Z,97718.05
2018-01-21T16:18:44.320Z,97715.24
2018-01-21T16:21:15.431Z,97721.36
2018-01-21T16:23:46.515Z,97724.24
2018-01-21T16:26:17.580Z,97722.06
2018-01-21T16:28:48.678Z,97727.49
2018-01-21T16:31:19.766Z,97732.33
2018-01-21T16:33:50.828Z,97732.35
2018-01-21T16:36:26.751Z,97734.19
2018-01-21T16:38:58.864Z,97734.81
2018-01-21T16:41:29.916Z,97736.09
2018-01-21T16:44:01.042Z,97739.38
2018-01-21T16:46:32.676Z,97738.36
2018-01-21T16:49:03.838Z,97734.50
2018-01-21T16:51:34.941Z,97747.17
2018-01-21T16:54:06.008Z,97747.02
2018-01-21T16:56:37.357Z,97743.88
2018-01-21T16:59:08.427Z,97752.23
2018-01-21T17:01:39.558Z,97751.30
2018-01-21T17:04:10.618Z,97750.09
2018-01-21T17:06:41.698Z,97752.45
2018-01-21T17:09:12.801Z,97749.50
2018-01-21T17:11:44.590Z,97753.58
2018-01-21T17:14:15.679Z,97744.08
2018-01-21T17:16:46.763Z,97742.24
2018-01-21T17:19:17.841Z,97739.33
2018-01-21T17:21:48.989Z,97747.44
2018-01-21T17:24:20.086Z,97748.92
2018-01-21T17:26:51.910Z,97748.70
2018-01-21T17:29:22.968Z,97752.10
2018-01-21T17:31:54.039Z,97759.28
2018-01-21T17:34:25.097Z,97752.05
2018-01-21T17:36:56.255Z,97752.41
2018-01-21T17:39:27.370Z,97748.88
2018-01-21T17:41:58.489Z,97755.38
2018-01-21T17:44:29.563Z,97755.05
2018-01-21T17:47:00.808Z,97756.05
2018-01-21T17:49:32.047Z,97751.03
2018-01-21T17:52:03.172Z,97754.52
2018-01-21T17:54:34.254Z,97757.48
2018-01-21T17:57:05.393Z,97766.25
2018-01-21T17:59:36.458Z,97766.75
2018-01-21T18:02:07.541Z,97761.16
2018-01-21T18:04:38.614Z,97762.03
2018-01-21T18:07:09.728Z,97764.23
2018-01-21T18:09:41.010Z,97765.13
2018-01-21T18:12:12.085Z,97765.31
2018-01-21T18:14:43.196Z,97772.11
2018-01-21T18:17:14.328Z,97770.36
2018-01-21T18:19:45.455Z,97776.14
2018-01-21T18:22:16.604Z,97775.55
2018-01-21T18:24:47.751Z,97771.91
2018-01-21T18:27:18.951Z,97769.00
2018-01-21T18:29:50.092Z,97767.21
2018-01-21T18:32:21.468Z,97765.91
2018-01-21T18:34:52.567Z,97767.88
2018-01-21T18:37:23.618Z,97763.57
2018-01-21T18:39:54.715Z,97765.55
2018-01-21T18:42:25.808Z,97766.21
2018-01-21T18:44:57.946Z,97763.02
2018-01-21T18:47:29.005Z,97764.50
2018-01-21T18:50:00.198Z,97768.22
2018-01-21T18:52:31.232Z,97765.62
2018-01-21T18:55:02.376Z,97758.23
2018-01-21T18:57:33.464Z,97753.44
2018-01-21T19:00:04.729Z,97754.83
2018-01-21T19:02:35.809Z,97755.90
2018-01-21T19:05:06.882Z,97751.87
2018-01-21T19:07:37.946Z,97758.19
2018-01-21T19:10:09.012Z,97756.98
2018-01-21T19:12:40.100Z,97760.67
2018-01-21T19:15:11.178Z,97760.36
2018-01-21T19:17:42.263Z,97763.45
2018-01-21T19:20:13.378Z,97763.62
2018-01-21T19:22:44.419Z,97761.13
2018-01-21T19:25:15.509Z,97775.89
2018-01-21T19:27:46.535Z,97774.58
2018-01-21T19:30:17.656Z,97777.71
2018-01-21T19:32:48.759Z,97782.06
2018-01-21T19:35:19.967Z,97787.70
2018-01-21T19:37:51.138Z,97784.85
2018-01-21T19:40:25.180Z,97782.44
2018-01-21T19:43:02.304Z,97789.88
2018-01-21T19:45:33.430Z,97790.53
2018-01-21T19:48:04.489Z,97782.34
2018-01-21T19:50:35.518Z,97791.52
2018-01-21T19:53:06.688Z,97791.69
2018-01-21T19:55:37.817Z,97784.62
2018-01-21T19:58:08.868Z,97795.09
2018-01-21T20:00:40.207Z,97791.69
2018-01-21T20:03:11.322Z,97787.22
2018-01-21T20:05:42.442Z,97787.30
2018-01-21T20:08:13.591Z,97786.81
2018-01-21T20:10:44.662Z,97789.14
2018-01-21T20:13:15.818Z,97790.73
2018-01-21T20:15:46.903Z,97789.23
2018-01-21T20:18:18.120Z,97793.22
2018-01-21T20:20:49.206Z,97782.52
2018-01-21T20:23:20.294Z,97780.23
2018-01-21T20:25:51.329Z,97783.50
2018-01-21T20:28:22.460Z,97793.88
2018-01-21T20:30:54.112Z,97789.27
2018-01-21T20:33:25.233Z,97791.20
2018-01-21T20:35:56.326Z,97789.28
2018-01-21T20:38:27.457Z,97779.11
2018-01-21T20:40:58.543Z,97780.27
2018-01-21T20:43:29.625Z,97779.86
2018-01-21T20:46:00.805Z,97772.30
2018-01-21T20:48:31.878Z,97758.13
2018-01-21T20:51:09.049Z,97759.82
2018-01-21T20:53:46.165Z,97757.48
2018-01-21T20:56:17.334Z,97756.90
2018-01-21T20:58:48.405Z,97761.69
2018-01-21T21:01:19.802Z,97759.36
2018-01-21T21:03:50.852Z,97758.15
2018-01-21T21:06:21.971Z,97749.79
2018-01-21T21:08:53.082Z,97749.12
2018-01-21T21:11:24.138Z,97756.12
2018-01-21T21:13:55.233Z,97754.16
2018-01-21T21:16:26.311Z,97755.86
2018-01-21T21:18:57.416Z,97761.86
2018-01-21T21:21:28.461Z,97753.44
2018-01-21T21:23:59.571Z,97749.87
2018-01-21T21:26:31.323Z,97741.91
2018-01-21T21:29:02.426Z,97731.24
2018-01-21T21:31:33.527Z,97716.88
2018-01-21T21:34:04.618Z,97708.67
2018-01-21T21:36:35.735Z,97699.59
2018-01-21T21:39:06.774Z,97696.52
2018-01-21T21:41:38.658Z,97692.45
2018-01-21T21:44:09.710Z,97680.39
2018-01-21T21:46:41.490Z,97672.59
2018-01-21T21:49:12.568Z,97682.89
2018-01-21T21:51:43.661Z,97672.29
2018-01-21T21:54:14.731Z,97670.83
2018-01-21T21:56:45.811Z,97674.66
2018-01-21T21:59:16.897Z,97676.61
2018-01-21T22:01:48.004Z,97663.22
2018-01-21T22:04:19.065Z,97665.50
2018-01-21T22:06:50.205Z,97669.25
2018-01-21T22:09:21.278Z,97675.22
2018-01-21T22:11:52.367Z,97670.44
2018-01-21T22:14:23.420Z,97662.83
2018-01-21T22:16:54.538Z,97664.70
2018-01-21T22:19:25.656Z,97660.02
2018-01-21T22:21:56.751Z,97667.86
2018-01-21T22:24:27.802Z,97663.16
2018-01-21T22:26:58.915Z,97652.70
2018-01-21T22:29:29.973Z,97646.89
2018-01-21T22:32:01.088Z,97642.42
2018-01-21T22:34:32.137Z,97637.57
2018-01-21T22:37:03.279Z,97636.34
2018-01-21T22:39:34.321Z,97627.48
2018-01-21T22:42:05.402Z,97624.66
2018-01-21T22:44:36.490Z,97613.36
2018-01-21T22:47:07.554Z,97609.31
2018-01-21T22:49:38.685Z,97606.33
2018-01-21T22:52:09.785Z,97598.29
2018-01-21T22:54:40.918Z,97596.19
2018-01-21T22:57:12.929Z,97601.30
2018-01-21T22:59:44.091Z,97588.77
2018-01-21T23:02:15.110Z,97585.86
2018-01-21T23:04:46.323Z,97588.05
2018-01-21T23:07:17.478Z,97588.40
2018-01-21T23:09:48.564Z,97596.45
2018-01-21T23:12:19.703Z,97592.22
2018-01-21T23:14:50.739Z,97591.49
2018-01-21T23:17:21.855Z,97588.15
2018-01-21T23:19:52.917Z,97585.94
2018-01-21T23:22:24.008Z,97588.02
2018-01-21T23:24:55.096Z,97576.95
2018-01-21T23:27:26.202Z,97567.34
2018-01-21T23:29:57.322Z,97560.07
2018-01-21T23:32:28.373Z,97547.34
2018-01-21T23:34:59.489Z,97538.63
2018-01-21T23:37:30.539Z,97538.55
2018-01-21T23:40:01.672Z,97529.92
2018-01-21T23:42:32.716Z,97536.95
2018-01-21T23:45:03.844Z,97526.22
2018-01-21T23:47:41.984Z,97527.61
2018-01-21T23:50:13.113Z,97521.21
2018-01-21T23:52:44.215Z,97515.66
2018-01-21T23:55:15.344Z,97516.15
2018-01-21T23:57:46.486Z,97512.16
